Terminal Aerodrome Forecast
Issued by NWS

Home | Current Version | Previous Version | Text Only | Print | Product List | Glossary On
Versions: 1 2 3 4 5 6 7 8 9 10 11 12 13 14 15 16 17 18 19 20
000
FTUS43 KLSX 311453 AAB
TAFSUS
TAF AMD
KSUS 311453Z 3115/0112 VRB03KT P6SM VCSH OVC070
     FM311600 14006KT P6SM BKN080
     FM311900 15005KT P6SM SCT045=

USA.gov is the U.S. government's official web portal to all federal, state and local government web resources and services.